Terminal Aerodrome Forecast
Issued by NWS Topeka, KS

Home | Current Version | Previous Version | Text Only | Print | Product List | Glossary On
Versions: 1 2 3 4 5 6 7 8 9 10 11 12 13
000
FTUS43 KTOP 232320
TAFTOP
TAF
KTOP 232320Z 2400/2424 15003KT P6SM SCT250
     FM240500 19005KT P6SM SCT250 WS013/23040KT
     FM241600 23013G19KT P6SM FEW250
     FM242100 27011KT P6SM SCT150=

USA.gov is the U.S. government's official web portal to all federal, state and local government web resources and services.